Time;durP1;ratioP1;P1;durP2;ratioP2;P2;SDS_P1;SDS_P2;PMS_P1;PMS_P2;Temp;Humidity;BMP_temperature;BMP_pressure;BME280_temperature;BME280_humidity;BME280_pressure;Samples;Min_cycle;Max_cycle;Signal;HPM_P1;HPM_P2
2022/07/10 06:59:28;;;;;;;4.57;2.35;;;14.20;99.90;;;;;;5070740;28;20597;-79
2022/07/10 07:01:54;;;;;;;8.30;2.20;;;14.30;99.90;;;;;;5070724;28;20659;-77
2022/07/10 07:04:19;;;;;;;3.50;2.00;;;14.50;99.90;;;;;;5069333;28;20271;-78
2022/07/10 07:06:45;;;;;;;2.85;2.08;;;14.60;99.90;;;;;;5069288;28;20176;-78
2022/07/10 07:09:11;;;;;;;4.32;2.63;;;14.60;99.90;;;;;;5070496;28;20188;-77
2022/07/10 07:11:36;;;;;;;5.63;1.90;;;14.70;99.90;;;;;;5070510;28;20164;-77
2022/07/10 07:14:02;;;;;;;2.35;1.70;;;14.60;99.90;;;;;;5070544;28;20172;-77
2022/07/10 07:16:38;;;;;;;5.78;1.98;;;14.50;99.90;;;;;;5069070;28;20525;-79
2022/07/10 07:19:05;;;;;;;6.47;2.25;;;14.50;99.90;;;;;;5069012;28;20210;-79
2022/07/10 07:24:18;;;;;;;4.72;1.80;;;14.20;99.90;;;;;;5070320;28;20226;-78
2022/07/10 07:26:44;;;;;;;9.85;2.30;;;14.20;99.90;;;;;;5068915;28;20195;-78
2022/07/10 07:29:09;;;;;;;11.48;1.90;;;14.20;99.90;;;;;;5070231;28;20268;-78
2022/07/10 07:31:35;;;;;;;3.45;1.80;;;14.30;99.90;;;;;;5068873;28;20259;-79
2022/07/10 07:34:00;;;;;;;4.43;1.70;;;14.20;99.90;;;;;;5070059;28;20318;-79
2022/07/10 07:36:26;;;;;;;2.80;1.90;;;14.30;99.90;;;;;;5070073;28;20165;-78
2022/07/10 07:38:52;;;;;;;8.07;2.17;;;14.40;99.90;;;;;;5069814;28;20737;-78
2022/07/10 07:41:18;;;;;;;6.88;2.13;;;14.50;99.90;;;;;;5069935;28;20169;-78
2022/07/10 07:43:43;;;;;;;3.55;2.47;;;14.60;99.90;;;;;;5069888;28;20189;-79
2022/07/10 07:46:09;;;;;;;4.93;2.00;;;14.90;99.90;;;;;;5069805;28;20255;-77
2022/07/10 07:48:35;;;;;;;11.52;2.38;;;14.60;99.90;;;;;;5069774;28;20176;-78
2022/07/10 07:51:00;;;;;;;4.88;2.10;;;14.60;99.90;;;;;;5068410;28;20179;-79
2022/07/10 07:53:26;;;;;;;3.65;2.42;;;14.50;99.90;;;;;;5069679;28;20176;-78
2022/07/10 07:55:52;;;;;;;3.30;1.52;;;14.40;99.90;;;;;;5069584;28;20251;-79
2022/07/10 07:58:17;;;;;;;5.35;1.77;;;14.30;99.90;;;;;;5068100;28;20232;-79
2022/07/10 08:00:44;;;;;;;2.33;2.08;;;14.30;99.90;;;;;;5068355;28;20255;-77
2022/07/10 08:03:10;;;;;;;4.65;1.65;;;14.10;99.90;;;;;;5069464;28;20172;-78
2022/07/10 08:05:35;;;;;;;3.88;1.92;;;14.10;99.90;;;;;;5069384;28;20165;-78
2022/07/10 08:08:06;;;;;;;4.07;2.28;;;14.10;99.90;;;;;;5069362;28;20228;-78
2022/07/10 08:10:32;;;;;;;5.05;1.90;;;14.00;99.90;;;;;;5056664;28;20542;-78
2022/07/10 08:12:57;;;;;;;6.90;2.05;;;13.90;99.90;;;;;;5056157;28;20176;-78
2022/07/10 08:15:23;;;;;;;7.35;1.90;;;13.90;99.90;;;;;;5056026;28;20615;-78
2022/07/10 08:17:57;;;;;;;2.72;2.28;;;13.80;99.90;;;;;;5055824;28;20207;-78
2022/07/10 08:20:24;;;;;;;7.70;2.00;;;13.70;99.90;;;;;;5054920;28;20169;-79
2022/07/10 08:22:51;;;;;;;2.00;1.88;;;13.80;99.90;;;;;;5056086;28;20177;-80
2022/07/10 08:25:16;;;;;;;6.15;2.40;;;13.70;99.90;;;;;;5056015;28;20157;-80
2022/07/10 08:27:42;;;;;;;2.78;2.10;;;13.70;99.90;;;;;;5055837;28;20169;-80
2022/07/10 08:30:09;;;;;;;9.60;2.13;;;14.60;99.90;;;;;;5055786;28;20172;-80
2022/07/10 08:32:36;;;;;;;6.72;1.80;;;13.70;99.90;;;;;;5055665;28;20562;-80
2022/07/10 08:35:02;;;;;;;11.43;1.90;;;13.90;99.90;;;;;;5055719;28;20219;-80
2022/07/10 08:37:28;;;;;;;2.55;2.10;;;13.70;99.90;;;;;;5055560;28;20282;-80
2022/07/10 08:39:54;;;;;;;5.85;2.30;;;13.70;99.90;;;;;;5055600;28;20189;-79
2022/07/10 08:42:21;;;;;;;4.90;2.13;;;13.60;99.90;;;;;;5055505;28;20578;-78
2022/07/10 08:44:46;;;;;;;8.50;2.45;;;13.70;99.90;;;;;;5055487;28;20169;-79
2022/07/10 08:47:13;;;;;;;6.70;2.33;;;13.70;99.90;;;;;;5055513;28;20485;-77
2022/07/10 08:49:48;;;;;;;4.28;2.28;;;13.70;99.90;;;;;;5055427;28;20176;-79
2022/07/10 08:52:26;;;;;;;11.20;2.80;;;13.60;99.90;;;;;;5055404;28;20527;-79
2022/07/10 08:54:51;;;;;;;4.63;2.55;;;13.70;99.90;;;;;;5055407;28;20172;-79
2022/07/10 08:57:18;;;;;;;7.38;2.38;;;13.80;99.90;;;;;;5054887;28;20215;-79
2022/07/10 08:59:44;;;;;;;3.33;2.38;;;13.80;99.90;;;;;;5055175;28;20157;-79
2022/07/10 09:02:11;;;;;;;7.63;2.38;;;13.70;99.90;;;;;;5055193;28;20177;-78
2022/07/10 09:04:37;;;;;;;6.97;2.97;;;13.60;99.90;;;;;;5055090;28;20173;-79
2022/07/10 09:07:17;;;;;;;4.85;2.67;;;13.70;99.90;;;;;;5055091;28;20269;-78
2022/07/10 09:09:57;;;;;;;5.13;2.33;;;13.80;99.90;;;;;;5054994;28;20252;-78
2022/07/10 09:12:24;;;;;;;8.20;3.70;;;13.70;99.90;;;;;;5054944;28;20619;-78
2022/07/10 09:14:50;;;;;;;9.15;2.95;;;13.80;99.90;;;;;;5054912;28;20620;-78
2022/07/10 09:17:18;;;;;;;5.68;2.00;;;13.90;99.90;;;;;;5054754;28;20240;-78
2022/07/10 09:19:44;;;;;;;2.50;2.30;;;13.90;99.90;;;;;;5054882;28;20176;-78
2022/07/10 09:22:11;;;;;;;3.13;2.33;;;14.00;99.90;;;;;;5053714;28;20341;-78
2022/07/10 09:24:39;;;;;;;9.57;3.00;;;13.80;99.90;;;;;;5054711;28;20192;-78
2022/07/10 09:27:05;;;;;;;10.85;3.15;;;13.80;99.90;;;;;;5054691;28;20173;-78
2022/07/10 09:29:32;;;;;;;3.85;2.55;;;13.80;99.90;;;;;;5054654;28;20165;-78
2022/07/10 09:32:02;;;;;;;4.13;2.53;;;13.90;99.90;;;;;;5053340;28;20204;-78
2022/07/10 09:34:43;;;;;;;4.80;2.75;;;13.90;99.90;;;;;;5054552;28;20206;-78
2022/07/10 09:37:31;;;;;;;2.50;2.38;;;13.90;99.90;;;;;;5054373;28;20169;-77
2022/07/10 09:40:05;;;;;;;4.00;2.90;;;13.90;99.90;;;;;;5053218;28;20180;-77
2022/07/10 09:42:39;;;;;;;2.67;2.47;;;14.00;99.90;;;;;;5053069;28;20183;-78
2022/07/10 09:45:16;;;;;;;7.97;2.13;;;14.00;99.90;;;;;;5053242;28;20243;-77
2022/07/10 09:48:03;;;;;;;3.97;2.30;;;14.20;99.90;;;;;;5053090;28;20534;-77
2022/07/10 09:50:36;;;;;;;2.45;2.30;;;14.20;99.90;;;;;;5054307;28;20161;-79
2022/07/10 09:53:06;;;;;;;5.05;2.30;;;14.40;99.90;;;;;;5054211;28;20173;-78
2022/07/10 09:55:34;;;;;;;3.67;2.60;;;14.50;99.90;;;;;;5054159;28;20169;-79
2022/07/10 09:58:04;;;;;;;3.78;2.38;;;14.30;99.90;;;;;;5053884;28;20272;-79
2022/07/10 10:00:32;;;;;;;2.40;2.20;;;14.30;99.90;;;;;;5052739;28;20184;-79
2022/07/10 10:03:03;;;;;;;4.43;2.28;;;14.20;99.90;;;;;;5054036;28;20162;-79
2022/07/10 10:05:42;;;;;;;2.45;2.20;;;14.30;99.90;;;;;;5054005;28;20168;-79
2022/07/10 10:08:16;;;;;;;2.45;2.25;;;14.40;99.90;;;;;;5053659;28;20196;-80
2022/07/10 10:10:47;;;;;;;4.68;2.00;;;14.10;99.90;;;;;;5053865;28;20196;-79
2022/07/10 10:13:17;;;;;;;2.55;2.00;;;14.10;99.90;;;;;;5053825;28;20665;-80
2022/07/10 10:15:43;;;;;;;2.63;2.40;;;14.20;99.90;;;;;;5053818;28;20272;-79
2022/07/10 10:18:11;;;;;;;2.97;2.20;;;14.20;99.90;;;;;;5053650;28;20779;-79
2022/07/10 10:20:37;;;;;;;4.93;2.50;;;14.30;99.90;;;;;;5053764;28;20173;-79
2022/07/10 10:23:12;;;;;;;2.25;2.15;;;14.30;99.90;;;;;;5053348;28;20180;-79
2022/07/10 10:25:39;;;;;;;3.08;2.22;;;14.30;99.90;;;;;;5053075;28;20180;-79
2022/07/10 10:28:12;;;;;;;4.78;2.75;;;14.30;99.90;;;;;;5054954;28;20243;-80
2022/07/10 10:30:40;;;;;;;2.47;1.98;;;14.40;99.90;;;;;;5053566;28;20235;-79
2022/07/10 10:33:34;;;;;;;3.28;2.28;;;14.30;99.90;;;;;;5051849;28;20173;-78
2022/07/10 10:36:01;;;;;;;2.63;2.42;;;14.30;99.90;;;;;;5053818;28;20502;-79
2022/07/10 10:38:47;;;;;;;3.63;2.83;;;14.30;99.90;;;;;;5053363;28;20204;-80
2022/07/10 10:41:23;;;;;;;3.15;2.95;;;14.30;99.90;;;;;;5053400;28;20177;-79
2022/07/10 10:44:18;;;;;;;2.90;2.80;;;14.30;99.90;;;;;;5051972;28;20712;-81
2022/07/10 10:47:07;;;;;;;6.03;3.22;;;14.30;99.90;;;;;;5050915;28;20181;-81
2022/07/10 10:49:52;;;;;;;7.30;4.15;;;14.40;99.90;;;;;;5053618;28;20157;-81
2022/07/10 10:52:19;;;;;;;6.40;6.00;;;14.50;99.90;;;;;;5053586;28;20172;-82
2022/07/10 10:54:57;;;;;;;7.78;7.28;;;14.60;99.90;;;;;;5052230;28;20201;-82
2022/07/10 10:57:43;;;;;;;7.82;7.13;;;15.00;99.90;;;;;;5053205;28;20629;-81
2022/07/10 11:00:14;;;;;;;6.90;6.32;;;14.30;99.90;;;;;;5052263;28;20165;-82
2022/07/10 11:02:41;;;;;;;7.55;6.97;;;14.30;99.90;;;;;;5053501;28;20172;-84
2022/07/10 11:07:55;;;;;;;7.65;7.15;;;14.50;99.90;;;;;;5053711;28;20193;-81
2022/07/10 11:10:35;;;;;;;8.00;7.35;;;14.60;99.90;;;;;;5052097;28;20180;-82
2022/07/10 11:13:14;;;;;;;8.40;7.75;;;14.50;99.90;;;;;;5052072;28;20187;-82
2022/07/10 11:15:44;;;;;;;8.23;7.53;;;14.70;99.90;;;;;;5053178;28;20478;-81
2022/07/10 11:18:16;;;;;;;8.73;8.13;;;15.10;99.90;;;;;;5053018;28;20193;-81
2022/07/10 11:20:53;;;;;;;9.88;8.32;;;14.80;99.90;;;;;;5051860;28;20215;-81
2022/07/10 11:23:21;;;;;;;9.30;8.43;;;14.80;99.90;;;;;;5053064;28;20211;-81
2022/07/10 11:26:09;;;;;;;10.32;8.27;;;14.80;99.90;;;;;;5051645;28;20172;-81
2022/07/10 11:28:43;;;;;;;9.88;8.68;;;14.80;99.90;;;;;;5053071;28;20173;-84
2022/07/10 11:31:19;;;;;;;11.32;10.27;;;14.90;99.90;;;;;;5054333;28;20226;-76
2022/07/10 11:33:52;;;;;;;11.77;10.23;;;15.10;99.90;;;;;;5053437;28;20164;-80
2022/07/10 11:36:25;;;;;;;11.82;10.75;;;15.40;99.90;;;;;;5053078;28;20236;-80
2022/07/10 11:38:57;;;;;;;11.85;10.95;;;15.50;99.90;;;;;;5051900;28;20202;-79
2022/07/10 11:41:24;;;;;;;12.88;11.27;;;16.00;99.90;;;;;;5051974;28;20170;-81
2022/07/10 11:43:58;;;;;;;11.80;10.70;;;15.80;99.90;;;;;;5051804;28;20556;-81
2022/07/10 11:46:25;;;;;;;14.18;11.90;;;15.80;99.90;;;;;;5056718;28;20562;-80
2022/07/10 11:48:56;;;;;;;13.65;12.38;;;16.70;99.90;;;;;;5056542;28;20204;-80
2022/07/10 11:51:36;;;;;;;14.25;12.85;;;16.50;99.90;;;;;;5056551;28;20165;-79
2022/07/10 11:54:05;;;;;;;12.63;11.20;;;16.20;99.90;;;;;;5057454;28;20268;-82
2022/07/10 11:56:33;;;;;;;12.00;10.82;;;16.20;99.90;;;;;;5056351;28;20173;-82
2022/07/10 11:59:04;;;;;;;15.20;12.27;;;16.20;99.90;;;;;;5056237;28;20220;-81
2022/07/10 12:01:35;;;;;;;12.90;11.60;;;16.10;99.90;;;;;;5055143;28;20225;-80
2022/07/10 12:04:06;;;;;;;13.20;12.00;;;15.90;99.90;;;;;;5055298;28;20243;-80
2022/07/10 12:06:34;;;;;;;11.25;10.38;;;16.00;99.90;;;;;;5055088;28;20169;-80
2022/07/10 12:09:07;;;;;;;10.70;9.73;;;16.10;99.90;;;;;;5055002;28;20654;-80
2022/07/10 12:11:34;;;;;;;8.35;7.75;;;16.20;99.90;;;;;;5056194;28;20374;-81
2022/07/10 12:14:14;;;;;;;7.63;6.97;;;16.10;99.90;;;;;;5056053;28;20165;-81
2022/07/10 12:16:42;;;;;;;7.57;7.07;;;16.10;99.90;;;;;;5056121;28;20169;-81
2022/07/10 12:19:08;;;;;;;7.57;7.03;;;16.00;99.90;;;;;;5055902;28;20208;-81
2022/07/10 12:21:35;;;;;;;6.25;5.85;;;16.10;99.90;;;;;;5055925;28;20169;-79
2022/07/10 12:24:02;;;;;;;6.50;6.00;;;16.00;99.90;;;;;;5055002;28;20180;-81
2022/07/10 12:26:34;;;;;;;6.38;5.97;;;15.90;99.90;;;;;;5055778;28;20175;-80
2022/07/10 12:29:00;;;;;;;7.88;7.38;;;16.60;99.90;;;;;;5055811;28;20529;-81
2022/07/10 12:31:34;;;;;;;9.32;8.60;;;15.60;99.90;;;;;;5055695;28;20169;-79
2022/07/10 12:34:03;;;;;;;10.55;9.82;;;15.50;99.90;;;;;;5054467;28;20264;-81
2022/07/10 12:36:52;;;;;;;10.82;9.88;;;15.30;99.90;;;;;;5054394;28;20534;-80
2022/07/10 12:39:24;;;;;;;15.18;11.05;;;15.30;99.90;;;;;;5055597;28;20342;-79
2022/07/10 12:42:05;;;;;;;10.82;9.88;;;15.20;99.90;;;;;;5055511;28;20172;-79
2022/07/10 12:44:33;;;;;;;11.95;11.05;;;14.90;99.90;;;;;;5055442;28;20533;-82
2022/07/10 12:47:10;;;;;;;9.20;8.52;;;14.90;99.90;;;;;;5055654;28;20542;-80
2022/07/10 12:50:03;;;;;;;6.78;6.28;;;15.30;99.90;;;;;;5055547;28;20169;-79
2022/07/10 12:52:31;;;;;;;7.45;6.93;;;15.30;99.90;;;;;;5053475;28;20169;-80
2022/07/10 12:55:15;;;;;;;5.88;5.30;;;15.50;99.90;;;;;;5054944;28;20506;-80
2022/07/10 12:57:49;;;;;;;5.97;5.65;;;15.70;99.90;;;;;;5054615;28;20225;-78
2022/07/10 13:00:20;;;;;;;6.85;6.30;;;15.80;99.90;;;;;;5054225;28;20256;-78
2022/07/10 13:02:50;;;;;;;5.82;5.20;;;15.70;99.90;;;;;;5055543;28;20161;-80
2022/07/10 13:05:38;;;;;;;5.13;4.18;;;15.60;99.90;;;;;;5054238;28;20196;-79
2022/07/10 13:08:19;;;;;;;6.55;5.50;;;15.50;99.90;;;;;;5055732;28;20329;-81
2022/07/10 13:11:05;;;;;;;4.57;4.20;;;16.00;99.90;;;;;;5055252;28;20248;-81
2022/07/10 13:13:31;;;;;;;4.90;4.60;;;16.00;99.90;;;;;;5054876;28;20185;-81
2022/07/10 13:15:57;;;;;;;4.32;4.13;;;16.30;99.90;;;;;;5055377;28;20485;-80
2022/07/10 13:18:26;;;;;;;3.45;3.25;;;16.30;99.90;;;;;;5055375;28;20197;-81
2022/07/10 13:20:54;;;;;;;4.85;3.13;;;16.10;99.90;;;;;;5054939;28;20252;-80
2022/07/10 13:23:21;;;;;;;4.53;4.13;;;16.00;99.90;;;;;;5055006;28;20548;-79
2022/07/10 13:25:51;;;;;;;5.43;4.30;;;15.90;99.90;;;;;;5055036;28;20161;-82
2022/07/10 13:28:17;;;;;;;3.13;3.03;;;15.80;99.90;;;;;;5054770;28;20196;-78
2022/07/10 13:30:43;;;;;;;3.50;3.20;;;15.60;99.90;;;;;;5054949;28;20619;-83
2022/07/10 13:33:09;;;;;;;4.22;3.90;;;15.70;99.90;;;;;;5053519;28;20173;-76
2022/07/10 13:35:35;;;;;;;5.28;3.53;;;15.80;99.90;;;;;;5053173;28;20267;-76
2022/07/10 13:38:02;;;;;;;3.33;3.13;;;15.90;99.90;;;;;;5054264;28;20284;-75
2022/07/10 13:40:30;;;;;;;3.20;3.00;;;15.80;99.90;;;;;;5054709;28;20227;-76
2022/07/10 13:42:56;;;;;;;4.65;4.30;;;16.50;99.90;;;;;;5054177;28;20240;-75
2022/07/10 13:45:23;;;;;;;6.47;5.97;;;16.10;99.90;;;;;;5053431;28;20173;-75
2022/07/10 13:47:48;;;;;;;7.10;6.80;;;16.60;99.90;;;;;;5053021;28;20796;-76
2022/07/10 13:50:14;;;;;;;9.30;8.35;;;15.80;99.90;;;;;;5053481;28;20181;-76
2022/07/10 13:52:40;;;;;;;9.10;7.85;;;15.70;99.90;;;;;;5053142;28;20227;-76
2022/07/10 13:55:06;;;;;;;8.10;7.53;;;15.90;99.90;;;;;;5054470;28;20251;-76
2022/07/10 13:57:35;;;;;;;8.45;7.68;;;16.10;99.90;;;;;;5054026;28;20217;-76
2022/07/10 14:00:00;;;;;;;7.63;7.22;;;16.40;99.90;;;;;;5054404;28;20239;-76
2022/07/10 14:02:26;;;;;;;8.55;7.07;;;16.80;99.90;;;;;;5054455;28;20170;-76
2022/07/10 14:04:52;;;;;;;6.68;6.28;;;17.30;99.90;;;;;;5054087;28;20169;-75
2022/07/10 14:07:17;;;;;;;7.03;6.43;;;17.80;99.90;;;;;;5053213;28;20586;-75
2022/07/10 14:09:43;;;;;;;10.63;7.70;;;17.50;99.90;;;;;;5052635;28;20219;-75
2022/07/10 14:12:09;;;;;;;7.93;7.25;;;17.20;99.90;;;;;;5053685;28;20534;-76
2022/07/10 14:14:34;;;;;;;8.18;7.65;;;16.70;99.90;;;;;;5053628;28;20161;-76
2022/07/10 14:17:00;;;;;;;12.43;8.25;;;17.00;99.90;;;;;;5053520;28;20170;-76
2022/07/10 14:19:26;;;;;;;8.65;8.00;;;16.50;99.90;;;;;;5053352;28;20633;-75
2022/07/10 14:21:51;;;;;;;8.90;7.93;;;16.00;99.90;;;;;;5053111;28;20170;-75
2022/07/10 14:24:17;;;;;;;9.70;8.05;;;15.80;99.90;;;;;;5053404;28;20173;-75
2022/07/10 14:26:43;;;;;;;9.43;8.63;;;15.80;99.90;;;;;;5053153;28;20188;-75
2022/07/10 14:29:08;;;;;;;8.63;8.02;;;16.10;99.90;;;;;;5052401;28;20231;-76
2022/07/10 14:31:34;;;;;;;8.88;7.68;;;16.30;99.90;;;;;;5053479;28;20638;-75
2022/07/10 14:34:00;;;;;;;8.75;8.10;;;16.70;99.90;;;;;;5052048;28;20562;-76
2022/07/10 14:36:28;;;;;;;8.32;7.50;;;16.70;99.90;;;;;;5053555;28;20258;-75
2022/07/10 14:38:55;;;;;;;7.95;7.18;;;16.70;99.90;;;;;;5051804;28;20243;-76
2022/07/10 14:41:25;;;;;;;15.18;7.13;;;16.60;99.90;;;;;;5053314;28;20181;-76
2022/07/10 14:43:51;;;;;;;7.85;7.25;;;16.30;99.90;;;;;;5053326;28;20302;-76
2022/07/10 14:46:17;;;;;;;7.30;6.63;;;16.10;99.90;;;;;;5052109;28;20657;-76
2022/07/10 14:48:42;;;;;;;8.18;7.45;;;16.00;99.90;;;;;;5053277;28;20204;-76
2022/07/10 14:51:08;;;;;;;7.38;6.30;;;16.00;99.90;;;;;;5052104;28;20172;-76
2022/07/10 14:53:35;;;;;;;8.02;7.22;;;16.70;99.90;;;;;;5053258;28;20184;-76
2022/07/10 14:56:03;;;;;;;6.07;5.63;;;16.60;99.90;;;;;;5052241;28;20619;-75
2022/07/10 14:58:28;;;;;;;6.15;5.55;;;17.00;99.90;;;;;;5051802;28;20287;-76
2022/07/10 15:00:54;;;;;;;5.90;5.35;;;17.00;99.90;;;;;;5053225;28;20654;-76
2022/07/10 15:03:20;;;;;;;9.45;6.03;;;17.30;99.90;;;;;;5052054;28;20181;-76
2022/07/10 15:05:46;;;;;;;5.72;5.22;;;17.20;99.90;;;;;;5053235;28;20171;-76
2022/07/10 15:08:12;;;;;;;5.78;5.10;;;17.10;99.90;;;;;;5053081;28;20177;-76
2022/07/10 15:10:37;;;;;;;6.05;5.43;;;17.00;99.90;;;;;;5053061;28;20268;-76
2022/07/10 15:13:05;;;;;;;11.95;5.25;;;16.80;99.90;;;;;;5053084;28;20251;-76
2022/07/10 15:15:33;;;;;;;6.63;4.70;;;16.80;99.90;;;;;;5053035;28;20195;-76
2022/07/10 15:17:59;;;;;;;6.10;5.60;;;16.60;99.90;;;;;;5052929;28;20193;-76
2022/07/10 15:20:24;;;;;;;5.50;5.10;;;16.50;99.90;;;;;;5053988;28;20165;-76
2022/07/10 15:22:50;;;;;;;9.48;4.57;;;16.30;99.90;;;;;;5056974;28;20173;-76
2022/07/10 15:25:18;;;;;;;5.65;5.03;;;17.10;99.90;;;;;;5057160;28;20165;-76
2022/07/10 15:27:43;;;;;;;7.78;5.45;;;16.70;99.90;;;;;;5055708;28;20179;-77
2022/07/10 15:30:14;;;;;;;6.07;4.57;;;16.00;99.90;;;;;;5056992;28;20248;-76
2022/07/10 15:32:39;;;;;;;7.25;5.22;;;16.00;99.90;;;;;;5057088;28;20169;-76
2022/07/10 15:35:06;;;;;;;5.90;5.25;;;16.40;99.90;;;;;;5056916;28;20173;-76
2022/07/10 15:37:32;;;;;;;7.88;5.05;;;16.10;99.90;;;;;;5056625;28;20172;-76
2022/07/10 15:39:58;;;;;;;6.00;5.47;;;16.20;99.90;;;;;;5056794;28;20168;-76
2022/07/10 15:42:23;;;;;;;4.70;4.40;;;17.00;99.90;;;;;;5056795;28;20598;-76
2022/07/10 15:44:49;;;;;;;8.45;4.57;;;16.70;99.90;;;;;;5056688;28;20169;-76
2022/07/10 15:47:16;;;;;;;6.13;4.45;;;17.00;99.90;;;;;;5056577;28;20165;-76
2022/07/10 15:49:42;;;;;;;5.57;4.65;;;17.30;99.90;;;;;;5056497;28;20577;-76
2022/07/10 15:52:08;;;;;;;5.38;4.20;;;17.40;99.90;;;;;;5056492;28;20171;-76
2022/07/10 15:54:33;;;;;;;7.93;4.50;;;17.70;99.90;;;;;;5056406;28;20226;-76
2022/07/10 15:57:01;;;;;;;7.75;4.68;;;17.90;99.90;;;;;;5055384;28;20336;-76
2022/07/10 15:59:27;;;;;;;7.18;4.45;;;18.00;99.90;;;;;;5054866;28;20270;-76
2022/07/10 16:01:55;;;;;;;6.70;4.28;;;17.70;99.90;;;;;;5056376;28;20176;-76
2022/07/10 16:04:22;;;;;;;5.10;3.75;;;17.50;99.90;;;;;;5056224;28;20214;-76
2022/07/10 16:06:49;;;;;;;4.65;4.25;;;17.20;99.90;;;;;;5056197;28;20622;-76
2022/07/10 16:09:15;;;;;;;4.38;4.00;;;17.50;99.90;;;;;;5056157;28;20169;-76
2022/07/10 16:11:41;;;;;;;6.13;4.53;;;16.70;99.90;;;;;;5056167;28;20173;-77
2022/07/10 16:14:07;;;;;;;4.45;4.15;;;16.70;99.90;;;;;;5054850;28;20176;-76
2022/07/10 16:16:33;;;;;;;4.32;4.00;;;16.80;99.90;;;;;;5056064;28;20170;-77
2022/07/10 16:18:59;;;;;;;7.38;3.90;;;16.90;99.90;;;;;;5055894;28;20539;-77
2022/07/10 16:21:24;;;;;;;6.40;3.95;;;17.10;99.90;;;;;;5055982;28;20169;-77
2022/07/10 16:23:51;;;;;;;4.00;3.75;;;17.30;99.90;;;;;;5054606;28;20177;-77
2022/07/10 16:26:17;;;;;;;3.80;3.50;;;17.30;99.90;;;;;;5055825;28;20175;-77
2022/07/10 16:28:42;;;;;;;4.28;3.72;;;17.40;99.90;;;;;;5054577;28;20173;-76
2022/07/10 16:31:08;;;;;;;5.70;3.47;;;17.30;99.90;;;;;;5055283;28;20618;-77
2022/07/10 16:33:34;;;;;;;4.80;3.22;;;17.40;99.90;;;;;;5055718;28;20165;-77
2022/07/10 16:36:00;;;;;;;6.15;3.70;;;17.10;99.90;;;;;;5055651;28;20534;-76
2022/07/10 16:38:26;;;;;;;4.35;3.22;;;17.00;99.90;;;;;;5055534;28;20201;-77
2022/07/10 16:40:53;;;;;;;4.03;3.00;;;17.10;99.90;;;;;;5055619;28;20618;-77
2022/07/10 16:43:18;;;;;;;3.40;3.10;;;16.80;99.90;;;;;;5055562;28;20188;-77
2022/07/10 16:45:47;;;;;;;4.25;3.78;;;16.80;99.90;;;;;;5055487;28;20630;-77
2022/07/10 16:48:13;;;;;;;3.92;3.63;;;16.70;99.90;;;;;;5055452;28;20223;-76
2022/07/10 16:50:39;;;;;;;3.50;3.30;;;16.80;99.90;;;;;;5055471;28;20169;-76
2022/07/10 16:53:05;;;;;;;3.50;3.20;;;16.50;99.90;;;;;;5054360;28;20180;-77
2022/07/10 16:55:33;;;;;;;5.28;3.50;;;16.60;99.90;;;;;;5055341;28;20570;-77
2022/07/10 16:57:58;;;;;;;4.00;3.70;;;16.50;99.90;;;;;;5055108;28;20287;-77
2022/07/10 17:00:24;;;;;;;6.63;4.15;;;16.60;99.90;;;;;;5055284;28;20203;-77
2022/07/10 17:22:26;;;;;;;3.80;3.50;;;16.70;99.90;;;;;;5110864;27;21047;-76
2022/07/10 17:24:53;;;;;;;3.47;3.17;;;17.40;99.90;;;;;;5110819;28;20167;-76
2022/07/10 17:27:19;;;;;;;4.20;2.95;;;16.90;99.90;;;;;;5110794;28;20176;-76
2022/07/10 17:29:47;;;;;;;3.55;3.28;;;16.80;99.90;;;;;;5126674;28;20167;-76
2022/07/10 17:32:13;;;;;;;3.40;3.10;;;16.90;99.90;;;;;;5110902;28;20170;-76
2022/07/10 17:34:39;;;;;;;3.25;3.03;;;16.90;99.90;;;;;;5110715;28;20249;-77
2022/07/10 17:37:05;;;;;;;3.28;2.80;;;17.00;99.90;;;;;;5110619;28;20212;-76
